createdAt,value
2022-11-21T00:03:16.581Z,14.98
2022-11-21T00:08:40.259Z,16.20
2022-11-21T00:14:05.462Z,17.58
2022-11-21T00:19:29.111Z,14.32
2022-11-21T00:24:54.295Z,12.88
2022-11-21T00:30:19.600Z,12.05
2022-11-21T00:35:43.209Z,10.63
2022-11-21T00:41:07.090Z,9.88
2022-11-21T00:46:32.296Z,9.60
2022-11-21T00:51:56.016Z,9.40
2022-11-21T00:57:19.673Z,9.43
2022-11-21T01:02:45.052Z,13.50
2022-11-21T01:08:08.740Z,13.63
2022-11-21T01:13:32.430Z,13.30
2022-11-21T01:18:57.660Z,12.98
2022-11-21T01:24:21.315Z,12.40
2022-11-21T01:29:45.123Z,12.85
2022-11-21T01:35:11.314Z,14.70
2022-11-21T01:40:39.245Z,12.85
2022-11-21T01:46:07.941Z,12.70
2022-11-21T01:51:35.216Z,12.95
2022-11-21T01:57:02.516Z,10.73
2022-11-21T02:02:30.590Z,11.07
2022-11-21T02:07:58.957Z,9.27
2022-11-21T02:13:23.610Z,10.40
2022-11-21T02:18:47.347Z,9.73
2022-11-21T02:24:17.663Z,9.68
2022-11-21T02:29:43.199Z,9.80
2022-11-21T02:35:07.955Z,13.65
2022-11-21T02:40:35.573Z,11.73
2022-11-21T02:46:00.629Z,12.73
2022-11-21T02:51:24.429Z,12.40
2022-11-21T02:56:48.091Z,10.40
2022-11-21T03:02:13.170Z,9.48
2022-11-21T03:07:37.083Z,7.15
2022-11-21T03:13:01.897Z,7.70
2022-11-21T03:18:26.978Z,6.68
2022-11-21T03:23:50.688Z,8.05
2022-11-21T03:29:14.299Z,7.22
2022-11-21T03:34:39.322Z,7.93
2022-11-21T03:40:03.019Z,7.97
2022-11-21T03:45:26.705Z,7.43
2022-11-21T03:50:51.771Z,8.18
2022-11-21T03:56:15.842Z,6.20
2022-11-21T04:01:39.543Z,6.65
2022-11-21T04:07:04.863Z,6.88
2022-11-21T04:12:28.513Z,5.20
2022-11-21T04:17:52.212Z,6.05
2022-11-21T04:23:17.332Z,7.13
2022-11-21T04:28:41.006Z,7.18
2022-11-21T04:34:04.929Z,8.10
2022-11-21T04:39:30.031Z,7.72
2022-11-21T04:44:53.757Z,7.50
2022-11-21T04:50:18.865Z,9.60
2022-11-21T04:55:43.971Z,7.10
2022-11-21T05:01:09.062Z,12.90
2022-11-21T05:06:32.973Z,17.35
2022-11-21T05:12:15.723Z,19.98
2022-11-21T05:17:39.501Z,17.92
2022-11-21T05:23:03.200Z,17.20
2022-11-21T05:28:28.428Z,18.63
2022-11-21T05:33:52.216Z,17.92
2022-11-21T05:39:16.727Z,18.73
2022-11-21T05:44:41.780Z,18.67
2022-11-21T05:50:06.045Z,19.70
2022-11-21T05:55:29.681Z,16.33
2022-11-21T06:01:00.110Z,15.35
2022-11-21T06:06:25.047Z,20.42
2022-11-21T06:11:48.820Z,22.20
2022-11-21T06:17:14.451Z,20.08
2022-11-21T06:22:38.173Z,21.13
2022-11-21T06:28:01.911Z,19.05
2022-11-21T06:33:26.959Z,21.02
2022-11-21T06:38:51.371Z,17.95
2022-11-21T06:44:15.231Z,17.75
2022-11-21T06:49:40.241Z,14.52
2022-11-21T06:55:03.981Z,17.52
2022-11-21T07:00:28.433Z,16.65
2022-11-21T07:05:58.534Z,16.20
2022-11-21T07:11:24.939Z,18.08
2022-11-21T07:16:49.137Z,18.38
2022-11-21T07:22:14.133Z,15.75
2022-11-21T07:27:37.848Z,15.52
2022-11-21T07:33:02.732Z,17.00
2022-11-21T07:38:28.130Z,16.27
2022-11-21T07:43:51.813Z,16.05
2022-11-21T07:49:15.472Z,15.43
2022-11-21T07:54:40.506Z,18.85
2022-11-21T08:00:05.050Z,18.40
2022-11-21T08:05:29.192Z,16.63
2022-11-21T08:10:54.269Z,16.48
2022-11-21T08:16:18.005Z,17.55
2022-11-21T08:21:41.646Z,17.30
2022-11-21T08:27:06.661Z,17.13
2022-11-21T08:32:30.870Z,20.58
2022-11-21T08:37:57.413Z,18.55
2022-11-21T08:43:22.481Z,19.48
2022-11-21T08:48:46.121Z,17.23
2022-11-21T08:54:10.740Z,18.70
2022-11-21T08:59:35.795Z,17.15
2022-11-21T09:04:59.818Z,13.90
2022-11-21T09:10:23.477Z,15.63
2022-11-21T09:16:05.930Z,18.02
2022-11-21T09:21:29.638Z,16.02
2022-11-21T09:26:53.309Z,16.15
2022-11-21T09:32:18.459Z,16.27
2022-11-21T09:37:42.227Z,15.52
2022-11-21T09:43:41.347Z,15.57
2022-11-21T09:49:10.646Z,14.18
2022-11-21T09:54:35.801Z,12.95
2022-11-21T09:59:59.833Z,11.93
2022-11-21T10:05:34.872Z,14.13
2022-11-21T10:11:14.144Z,13.43
2022-11-21T10:16:48.893Z,12.93
2022-11-21T10:22:38.089Z,11.18
2022-11-21T10:28:11.898Z,13.05
2022-11-21T10:33:36.614Z,12.35
2022-11-21T10:39:04.340Z,11.93
2022-11-21T10:44:46.633Z,12.48
2022-11-21T10:50:23.364Z,12.30
2022-11-21T10:55:59.962Z,13.30
2022-11-21T11:01:26.623Z,13.25
2022-11-21T11:06:50.377Z,11.77
2022-11-21T11:12:50.999Z,13.57
2022-11-21T11:18:15.914Z,12.40
2022-11-21T11:23:39.609Z,12.40
2022-11-21T11:29:14.463Z,12.30
2022-11-21T11:34:40.799Z,13.38
2022-11-21T11:40:18.182Z,12.90
2022-11-21T11:46:34.333Z,11.98
2022-11-21T11:52:02.325Z,11.63
2022-11-21T11:57:28.034Z,11.68
2022-11-21T12:02:59.835Z,12.20
2022-11-21T12:08:43.341Z,15.68
2022-11-21T12:14:34.964Z,14.25
2022-11-21T12:20:03.502Z,10.50
2022-11-21T12:25:31.302Z,10.10
2022-11-21T12:31:10.688Z,8.85
2022-11-21T12:36:44.982Z,10.70
2022-11-21T12:42:35.015Z,12.15
2022-11-21T12:48:32.074Z,12.52
2022-11-21T12:54:23.036Z,15.20
2022-11-21T12:59:58.382Z,14.57
2022-11-21T13:05:28.540Z,11.02
2022-11-21T13:11:20.847Z,9.88
2022-11-21T13:16:50.742Z,10.20
2022-11-21T13:22:47.763Z,9.75
2022-11-21T13:28:44.575Z,8.40
2022-11-21T13:34:36.109Z,9.57
2022-11-21T13:40:37.217Z,9.82
2022-11-21T13:46:02.281Z,9.10
2022-11-21T13:51:56.360Z,9.27
2022-11-21T13:57:33.602Z,8.60
2022-11-21T14:03:29.985Z,9.10
2022-11-21T14:09:15.585Z,8.75
2022-11-21T14:14:41.799Z,9.50
2022-11-21T14:20:18.255Z,9.00
2022-11-21T14:25:47.100Z,9.63
2022-11-21T14:31:13.425Z,9.40
2022-11-21T14:36:39.646Z,10.52
2022-11-21T14:42:05.062Z,16.80
2022-11-21T14:47:29.590Z,16.30
2022-11-21T14:52:58.088Z,11.77
2022-11-21T14:58:23.309Z,11.10
2022-11-21T15:03:56.219Z,10.50
2022-11-21T15:15:16.608Z,11.50
2022-11-21T15:20:40.315Z,13.68
2022-11-21T15:26:05.582Z,12.80
2022-11-21T15:31:29.625Z,14.75
2022-11-21T15:37:05.077Z,15.80
2022-11-21T15:42:37.356Z,16.92
2022-11-21T15:48:01.000Z,17.00
2022-11-21T15:53:24.583Z,15.48
2022-11-21T15:58:50.109Z,16.88
2022-11-21T16:04:14.002Z,13.90
2022-11-21T16:09:38.659Z,12.15
2022-11-21T16:15:03.701Z,13.80
2022-11-21T16:20:28.677Z,13.82
2022-11-21T16:25:55.940Z,18.10
2022-11-21T16:31:22.472Z,16.77
2022-11-21T16:36:46.134Z,15.15
2022-11-21T16:42:11.559Z,15.38
2022-11-21T16:47:38.665Z,16.23
2022-11-21T16:53:02.340Z,19.77
2022-11-21T16:58:26.061Z,20.90
2022-11-21T17:03:51.729Z,19.42
2022-11-21T17:09:15.489Z,18.90
2022-11-21T17:14:39.303Z,24.33
2022-11-21T17:20:05.131Z,20.92
2022-11-21T17:25:28.847Z,21.02
2022-11-21T17:30:52.598Z,21.42
2022-11-21T17:36:20.230Z,19.25
2022-11-21T17:41:43.972Z,24.17
2022-11-21T17:47:07.700Z,18.27
2022-11-21T17:52:32.807Z,17.67
2022-11-21T17:57:56.491Z,15.15
2022-11-21T18:03:20.142Z,15.98
2022-11-21T18:08:48.267Z,16.65
2022-11-21T18:14:13.731Z,17.83
2022-11-21T18:19:37.530Z,24.67
2022-11-21T18:25:02.623Z,20.52
2022-11-21T18:30:26.390Z,18.10
2022-11-21T18:35:50.112Z,22.73
2022-11-21T18:41:17.499Z,19.00
2022-11-21T18:46:41.230Z,18.42
2022-11-21T18:52:05.075Z,18.52
2022-11-21T18:57:30.201Z,16.75
2022-11-21T19:02:53.889Z,17.52
2022-11-21T19:08:17.637Z,21.02
2022-11-21T19:13:43.605Z,20.95
2022-11-21T19:24:51.643Z,19.55
2022-11-21T19:30:17.555Z,19.92
2022-11-21T19:35:41.796Z,18.95
2022-11-21T19:41:16.167Z,20.40
2022-11-21T19:46:41.270Z,19.63
2022-11-21T19:52:05.225Z,18.23
2022-11-21T19:57:28.962Z,17.92
2022-11-21T20:02:54.031Z,16.77
2022-11-21T20:08:18.265Z,17.30
2022-11-21T20:13:44.324Z,16.67
2022-11-21T20:19:11.949Z,17.50
2022-11-21T20:24:41.125Z,16.50
2022-11-21T20:30:06.900Z,16.15
2022-11-21T20:35:32.469Z,17.25
2022-11-21T20:40:56.390Z,17.17
2022-11-21T20:46:20.953Z,19.25
2022-11-21T20:57:30.410Z,21.13
2022-11-21T21:02:54.088Z,23.52
2022-11-21T21:08:19.179Z,24.27
2022-11-21T21:13:44.162Z,20.52
2022-11-21T21:19:07.878Z,22.45
2022-11-21T21:24:32.960Z,21.35
2022-11-21T21:29:56.809Z,21.27
2022-11-21T21:35:20.605Z,23.17
2022-11-21T21:40:46.258Z,24.08
2022-11-21T21:46:11.845Z,22.65
2022-11-21T21:51:37.200Z,20.45
2022-11-21T21:57:02.738Z,21.23
2022-11-21T22:02:26.418Z,19.23
2022-11-21T22:07:50.185Z,18.98
2022-11-21T22:13:15.695Z,20.20
2022-11-21T22:18:40.001Z,21.13
2022-11-21T22:29:50.826Z,19.30
2022-11-21T22:35:14.654Z,18.65
2022-11-21T22:40:38.259Z,16.95
2022-11-21T22:46:04.014Z,15.00
2022-11-21T22:51:29.553Z,15.35
2022-11-21T22:56:53.546Z,16.60
2022-11-21T23:02:18.614Z,15.80
2022-11-21T23:07:43.821Z,16.60
2022-11-21T23:13:07.557Z,18.23
2022-11-21T23:18:33.002Z,17.17
2022-11-21T23:23:56.626Z,18.77
2022-11-21T23:29:20.350Z,19.80
2022-11-21T23:34:45.373Z,18.02
2022-11-21T23:40:10.345Z,17.55
2022-11-21T23:45:34.162Z,17.77
2022-11-21T23:50:59.147Z,17.20
2022-11-21T23:56:22.797Z,15.50
